createdAt,value
2023-03-20T00:00:26.729Z,9.60
2023-03-20T00:03:13.667Z,10.10
2023-03-20T00:05:59.190Z,9.60
2023-03-20T00:08:47.213Z,9.32
2023-03-20T00:11:34.717Z,9.60
2023-03-20T00:14:24.338Z,9.20
2023-03-20T00:17:18.082Z,10.57
2023-03-20T00:20:04.560Z,10.02
2023-03-20T00:22:51.038Z,11.60
2023-03-20T00:25:39.670Z,10.88
2023-03-20T00:28:37.478Z,11.13
2023-03-20T00:31:26.700Z,12.52
2023-03-20T00:34:14.247Z,13.18
2023-03-20T00:37:00.180Z,12.98
2023-03-20T00:39:48.507Z,14.18
2023-03-20T00:42:36.248Z,14.77
2023-03-20T00:45:21.894Z,15.05
2023-03-20T00:48:13.155Z,13.82
2023-03-20T00:53:45.382Z,13.63
2023-03-20T00:56:34.416Z,12.65
2023-03-20T00:59:26.710Z,12.27
2023-03-20T01:02:12.982Z,12.00
2023-03-20T01:04:58.778Z,11.27
2023-03-20T01:07:45.909Z,10.88
2023-03-20T01:10:33.131Z,9.65
2023-03-20T01:13:21.508Z,10.30
2023-03-20T01:16:21.099Z,9.32
2023-03-20T01:19:07.224Z,7.97
2023-03-20T01:21:52.874Z,7.22
2023-03-20T01:24:40.627Z,8.13
2023-03-20T01:27:26.512Z,6.30
2023-03-20T01:30:18.950Z,6.03
2023-03-20T01:33:14.252Z,6.18
2023-03-20T01:36:00.178Z,5.35
2023-03-20T01:38:46.721Z,4.68
2023-03-20T01:41:34.710Z,5.38
2023-03-20T01:44:23.166Z,5.07
2023-03-20T01:47:17.455Z,5.15
2023-03-20T01:50:26.409Z,4.85
2023-03-20T01:53:23.068Z,3.90
2023-03-20T01:56:15.899Z,4.45
2023-03-20T01:59:10.666Z,4.20
2023-03-20T02:01:56.879Z,4.30
2023-03-20T02:04:47.786Z,4.55
2023-03-20T02:07:38.264Z,3.65
2023-03-20T02:13:35.937Z,5.50
2023-03-20T02:16:21.826Z,4.93
2023-03-20T02:19:34.074Z,5.13
2023-03-20T02:22:57.388Z,5.55
2023-03-20T02:26:08.025Z,4.95
2023-03-20T02:29:28.514Z,5.78
2023-03-20T02:32:46.877Z,6.18
2023-03-20T02:36:06.459Z,6.40
2023-03-20T02:39:07.910Z,6.13
2023-03-20T02:42:00.760Z,6.93
2023-03-20T02:44:55.770Z,7.28
2023-03-20T02:47:50.279Z,8.18
2023-03-20T02:50:47.923Z,7.30
2023-03-20T02:53:40.938Z,7.43
2023-03-20T02:56:34.078Z,7.97
2023-03-20T02:59:28.065Z,7.78
2023-03-20T03:02:16.566Z,7.82
2023-03-20T03:05:08.181Z,8.10
2023-03-20T03:07:57.466Z,8.07
2023-03-20T03:10:46.688Z,8.18
2023-03-20T03:13:37.762Z,7.65
2023-03-20T03:16:27.425Z,9.13
2023-03-20T03:19:18.784Z,9.05
2023-03-20T03:22:05.751Z,9.45
2023-03-20T03:24:53.718Z,9.10
2023-03-20T03:27:43.405Z,9.82
2023-03-20T03:30:33.036Z,9.80
2023-03-20T03:33:21.854Z,9.57
2023-03-20T03:36:16.187Z,10.57
2023-03-20T03:39:11.464Z,11.32
2023-03-20T03:42:04.187Z,10.20
2023-03-20T03:56:12.743Z,11.15
2023-03-20T04:04:37.209Z,11.43
2023-03-20T04:07:27.791Z,11.50
2023-03-20T04:10:14.056Z,12.67
2023-03-20T04:13:00.362Z,12.00
2023-03-20T04:15:46.164Z,14.63
2023-03-20T04:18:32.168Z,13.52
2023-03-20T04:21:19.506Z,14.25
2023-03-20T04:24:06.683Z,14.63
2023-03-20T04:26:52.736Z,14.63
2023-03-20T04:29:39.460Z,15.63
2023-03-20T04:32:57.588Z,15.27
2023-03-20T04:35:55.830Z,15.45
2023-03-20T04:38:44.316Z,15.55
2023-03-20T04:41:30.210Z,16.15
2023-03-20T04:44:16.763Z,15.80
2023-03-20T04:47:04.911Z,15.13
2023-03-20T04:49:52.771Z,16.13
2023-03-20T04:52:39.130Z,15.85
2023-03-20T04:55:27.001Z,15.88
2023-03-20T04:58:15.255Z,16.65
2023-03-20T05:01:00.967Z,15.77
2023-03-20T05:03:46.697Z,16.08
2023-03-20T05:06:32.769Z,14.73
2023-03-20T05:09:19.276Z,16.23
2023-03-20T05:12:09.499Z,13.90
2023-03-20T05:15:18.060Z,14.43
2023-03-20T05:18:35.012Z,13.30
2023-03-20T05:21:39.513Z,12.60
2023-03-20T05:24:44.634Z,13.27
2023-03-20T05:27:47.863Z,11.85
2023-03-20T05:31:06.982Z,13.50
2023-03-20T05:34:12.320Z,11.73
2023-03-20T05:37:08.068Z,11.00
2023-03-20T05:40:15.449Z,11.55
2023-03-20T05:43:21.892Z,11.57
2023-03-20T05:46:26.684Z,10.98
2023-03-20T05:49:21.441Z,10.48
2023-03-20T05:52:35.080Z,11.15
2023-03-20T05:55:41.461Z,10.85
2023-03-20T07:30:08.875Z,10.00
2023-03-20T07:55:31.637Z,9.17
2023-03-20T07:58:18.728Z,9.63
2023-03-20T08:01:04.844Z,9.80
2023-03-20T08:03:50.991Z,9.10
2023-03-20T08:06:39.449Z,9.30
2023-03-20T08:09:26.280Z,8.60
2023-03-20T08:12:11.974Z,9.10
2023-03-20T08:14:59.395Z,8.48
2023-03-20T08:17:45.606Z,7.82
2023-03-20T08:20:31.785Z,8.45
2023-03-20T08:23:20.449Z,8.57
2023-03-20T08:26:07.127Z,7.45
2023-03-20T08:28:53.284Z,7.13
2023-03-20T08:31:40.354Z,6.85
2023-03-20T08:34:26.408Z,7.10
2023-03-20T08:37:13.887Z,6.45
2023-03-20T08:39:59.320Z,6.43
2023-03-20T08:42:46.176Z,6.60
2023-03-20T08:45:31.777Z,7.07
2023-03-20T08:48:19.022Z,6.55
2023-03-20T08:51:06.068Z,6.88
2023-03-20T08:53:51.811Z,7.43
2023-03-20T08:56:37.976Z,6.75
2023-03-20T08:59:23.920Z,6.13
2023-03-20T09:02:11.322Z,6.20
2023-03-20T09:04:58.844Z,6.70
2023-03-20T09:10:30.885Z,6.15
2023-03-20T09:13:26.768Z,5.90
2023-03-20T09:16:14.996Z,5.43
2023-03-20T09:19:01.454Z,5.90
2023-03-20T09:21:48.930Z,6.07
2023-03-20T09:24:34.939Z,5.72
2023-03-20T09:27:21.611Z,5.45
2023-03-20T09:30:08.987Z,5.93
2023-03-20T09:32:54.748Z,5.47
2023-03-20T09:35:43.509Z,6.05
2023-03-20T09:38:30.771Z,6.28
2023-03-20T09:41:20.321Z,5.60
2023-03-20T09:44:17.150Z,6.05
2023-03-20T09:47:20.317Z,5.70
2023-03-20T09:50:25.942Z,5.65
2023-03-20T09:53:18.110Z,5.68
2023-03-20T09:56:11.065Z,5.38
2023-03-20T09:58:58.456Z,6.22
2023-03-20T10:01:48.429Z,5.10
2023-03-20T10:04:39.052Z,4.10
2023-03-20T10:07:26.019Z,4.80
2023-03-20T10:10:13.690Z,4.88
2023-03-20T10:13:10.533Z,4.07
2023-03-20T10:16:02.679Z,4.32
2023-03-20T10:18:56.969Z,3.88
2023-03-20T10:21:44.697Z,4.53
2023-03-20T10:24:35.989Z,4.32
2023-03-20T10:27:26.869Z,4.40
2023-03-20T10:30:33.398Z,4.07
2023-03-20T10:33:41.207Z,4.50
2023-03-20T10:36:43.136Z,4.15
2023-03-20T10:39:50.351Z,4.00
2023-03-20T10:42:39.649Z,4.47
2023-03-20T10:45:38.154Z,3.85
2023-03-20T10:48:27.302Z,3.90
2023-03-20T10:51:16.376Z,4.20
2023-03-20T10:54:05.958Z,4.10
2023-03-20T10:56:55.931Z,4.15
2023-03-20T10:59:45.283Z,4.63
2023-03-20T11:02:32.549Z,5.00
2023-03-20T11:05:25.571Z,4.63
2023-03-20T11:08:13.912Z,4.68
2023-03-20T11:11:01.562Z,5.00
2023-03-20T11:13:49.237Z,4.53
2023-03-20T11:16:37.015Z,4.57
2023-03-20T11:19:24.902Z,4.93
2023-03-20T11:22:24.354Z,4.90
2023-03-20T11:25:24.411Z,5.18
2023-03-20T11:28:21.124Z,4.90
2023-03-20T11:31:16.105Z,5.03
2023-03-20T11:34:11.662Z,5.70
2023-03-20T11:37:10.094Z,5.03
2023-03-20T11:40:01.283Z,4.72
2023-03-20T11:42:54.196Z,5.70
2023-03-20T11:45:42.320Z,5.22
2023-03-20T11:48:37.909Z,5.30
2023-03-20T11:51:23.889Z,5.05
2023-03-20T11:54:17.176Z,5.30
2023-03-20T11:57:03.071Z,4.70
2023-03-20T11:59:48.739Z,5.30
2023-03-20T12:02:36.330Z,5.68
2023-03-20T12:05:31.813Z,5.75
2023-03-20T12:08:22.402Z,5.35
2023-03-20T12:11:24.881Z,5.85
2023-03-20T12:14:19.124Z,5.97
2023-03-20T12:17:27.983Z,5.55
2023-03-20T12:20:25.179Z,5.85
2023-03-20T12:23:13.725Z,6.13
2023-03-20T12:26:04.302Z,5.80
2023-03-20T12:28:58.273Z,7.17
2023-03-20T12:31:50.176Z,6.55
2023-03-20T12:34:41.128Z,6.28
2023-03-20T12:37:26.986Z,6.07
2023-03-20T12:40:16.883Z,6.80
2023-03-20T12:43:09.377Z,6.88
2023-03-20T12:46:02.892Z,7.30
2023-03-20T12:49:10.475Z,6.93
2023-03-20T12:52:04.157Z,6.15
2023-03-20T12:55:10.341Z,6.20
2023-03-20T12:58:06.490Z,6.65
2023-03-20T13:01:00.431Z,7.13
2023-03-20T13:04:21.706Z,7.65
2023-03-20T13:07:17.924Z,8.00
2023-03-20T13:10:19.560Z,7.43
2023-03-20T13:16:12.120Z,6.65
2023-03-20T13:19:07.392Z,7.40
2023-03-20T13:21:59.127Z,7.80
2023-03-20T13:24:49.753Z,8.10
2023-03-20T13:27:42.652Z,7.93
2023-03-20T13:30:35.504Z,8.95
2023-03-20T13:33:36.243Z,8.38
2023-03-20T13:36:33.708Z,7.70
2023-03-20T13:39:22.778Z,8.32
2023-03-20T13:42:14.048Z,8.82
2023-03-20T13:45:14.890Z,8.23
2023-03-20T13:48:05.663Z,7.88
2023-03-20T13:51:02.233Z,8.55
2023-03-20T13:54:01.330Z,9.20
2023-03-20T13:56:56.524Z,8.57
2023-03-20T13:59:54.139Z,9.20
2023-03-20T14:02:53.486Z,10.13
2023-03-20T14:05:41.800Z,9.35
2023-03-20T14:08:37.790Z,8.57
2023-03-20T14:11:35.448Z,9.80
2023-03-20T14:14:27.853Z,10.75
2023-03-20T14:17:17.434Z,10.10
2023-03-20T14:20:13.811Z,10.60
2023-03-20T14:23:00.196Z,10.15
2023-03-20T14:25:48.711Z,9.45
2023-03-20T14:28:45.951Z,10.32
2023-03-20T14:31:34.336Z,9.48
2023-03-20T14:34:25.864Z,9.75
2023-03-20T14:37:28.961Z,9.93
2023-03-20T14:40:17.632Z,9.07
2023-03-20T14:43:14.243Z,8.25
2023-03-20T15:03:06.892Z,8.15
2023-03-20T15:05:57.500Z,7.85
2023-03-20T15:08:47.376Z,8.55
2023-03-20T15:11:34.181Z,8.55
2023-03-20T15:14:24.870Z,8.00
2023-03-20T15:17:21.226Z,8.30
2023-03-20T15:20:15.324Z,8.45
2023-03-20T15:23:02.528Z,8.07
2023-03-20T15:25:50.709Z,8.90
2023-03-20T15:28:38.036Z,8.45
2023-03-20T15:31:26.462Z,8.90
2023-03-20T15:34:19.124Z,9.02
2023-03-20T15:37:04.902Z,8.95
2023-03-20T15:39:53.911Z,9.95
2023-03-20T15:42:39.543Z,9.63
2023-03-20T15:45:28.120Z,10.07
2023-03-20T15:48:15.977Z,10.13
2023-03-20T15:51:05.552Z,10.57
2023-03-20T15:53:51.743Z,10.07
2023-03-20T15:56:43.127Z,9.88
2023-03-20T15:59:31.884Z,10.82
2023-03-20T16:02:18.253Z,11.27
2023-03-20T16:05:13.009Z,10.80
2023-03-20T16:08:12.139Z,10.95
2023-03-20T16:10:59.545Z,11.05
2023-03-20T16:13:47.977Z,11.07
2023-03-20T16:16:37.401Z,10.52
2023-03-20T16:19:24.526Z,9.85
2023-03-20T16:22:19.122Z,10.57
2023-03-20T16:25:12.570Z,10.18
2023-03-20T16:27:58.768Z,9.48
2023-03-20T16:30:44.474Z,10.38
2023-03-20T16:33:30.889Z,10.93
2023-03-20T16:36:21.710Z,9.60
2023-03-20T16:39:10.439Z,10.27
2023-03-20T16:42:19.640Z,10.15
2023-03-20T16:45:10.959Z,10.00
2023-03-20T16:48:25.298Z,9.88
2023-03-20T16:51:17.703Z,9.45
2023-03-20T16:54:03.445Z,9.80
2023-03-20T16:56:53.886Z,8.70
2023-03-20T17:02:30.445Z,10.45
2023-03-20T17:13:38.665Z,9.38
2023-03-20T17:16:26.649Z,9.18
2023-03-20T17:19:15.981Z,10.07
2023-03-20T17:22:05.533Z,9.25
2023-03-20T17:24:52.337Z,9.85
2023-03-20T17:27:39.258Z,8.77
2023-03-20T17:30:26.087Z,9.60
2023-03-20T18:00:14.889Z,10.55
2023-03-20T18:03:00.560Z,11.48
2023-03-20T18:05:50.864Z,10.00
2023-03-20T18:16:58.601Z,10.50
2023-03-20T18:19:44.766Z,10.90
2023-03-20T18:22:30.405Z,12.02
2023-03-20T18:25:16.201Z,12.43
2023-03-20T18:28:05.202Z,12.63
2023-03-20T18:30:51.671Z,12.60
2023-03-20T18:41:58.411Z,14.23
2023-03-20T18:44:45.870Z,14.27
2023-03-20T18:47:34.917Z,15.18
2023-03-20T18:50:25.105Z,15.18
2023-03-20T18:53:10.886Z,15.73
2023-03-20T18:55:57.052Z,14.90
2023-03-20T18:58:43.916Z,14.80
2023-03-20T19:01:30.992Z,15.65
2023-03-20T19:04:16.929Z,14.70
2023-03-20T19:07:03.105Z,15.63
2023-03-20T19:09:48.543Z,16.27
2023-03-20T19:12:34.202Z,15.10
2023-03-20T19:15:20.319Z,15.57
2023-03-20T19:18:15.482Z,15.60
2023-03-20T19:21:01.530Z,14.88
2023-03-20T19:23:48.175Z,15.25
2023-03-20T19:26:36.122Z,14.85
2023-03-20T19:29:21.740Z,14.82
2023-03-20T19:32:07.318Z,14.77
2023-03-20T19:35:40.847Z,16.55
2023-03-20T19:38:00.625Z,15.85
2023-03-20T19:40:47.975Z,16.45
2023-03-20T19:43:33.595Z,17.20
2023-03-20T19:46:37.691Z,17.42
2023-03-20T19:49:30.631Z,18.27
2023-03-20T19:52:28.661Z,18.33
2023-03-20T19:55:14.484Z,17.80
2023-03-20T19:58:00.849Z,18.67
2023-03-20T20:00:58.890Z,20.38
2023-03-20T20:03:46.177Z,20.63
2023-03-20T20:06:33.239Z,20.95
2023-03-20T20:09:20.974Z,21.77
2023-03-20T20:12:07.290Z,21.85
2023-03-20T20:14:53.201Z,22.38
2023-03-20T20:17:41.011Z,21.58
2023-03-20T20:20:29.466Z,23.00
2023-03-20T20:23:18.245Z,23.80
2023-03-20T20:26:07.858Z,23.92
2023-03-20T20:28:53.761Z,24.45
2023-03-20T20:31:39.680Z,24.50
2023-03-20T20:35:22.664Z,25.45
2023-03-20T20:40:38.766Z,27.60
2023-03-20T20:43:50.675Z,27.45
2023-03-20T20:46:31.827Z,28.70
2023-03-20T20:49:19.769Z,30.10
2023-03-20T20:52:05.989Z,30.23
2023-03-20T20:54:51.793Z,29.70
2023-03-20T20:57:37.973Z,29.55
2023-03-20T21:00:41.033Z,29.95
2023-03-20T21:03:32.084Z,30.95
2023-03-20T21:06:17.771Z,29.30
2023-03-20T21:09:03.949Z,29.05
2023-03-20T21:11:49.888Z,30.10
2023-03-20T21:14:35.865Z,29.95
2023-03-20T21:17:24.900Z,31.20
2023-03-20T21:20:12.274Z,31.90
2023-03-20T21:22:58.447Z,32.15
2023-03-20T21:25:47.871Z,31.35
2023-03-20T21:28:34.416Z,30.08
2023-03-20T21:31:28.496Z,31.02
2023-03-20T21:34:18.905Z,33.05
2023-03-20T21:38:04.009Z,32.08
2023-03-20T21:40:12.369Z,32.13
2023-03-20T21:42:58.563Z,31.27
2023-03-20T21:46:37.507Z,33.95
2023-03-20T21:49:40.164Z,33.53
2023-03-20T21:55:48.147Z,32.63
2023-03-20T21:58:50.866Z,32.60
2023-03-20T22:08:08.922Z,31.58
2023-03-20T22:29:58.879Z,28.42
2023-03-20T22:33:12.624Z,28.38
2023-03-20T22:42:22.339Z,26.08
2023-03-20T22:45:00.065Z,25.45
2023-03-20T22:47:47.243Z,26.58
2023-03-20T22:50:32.979Z,25.70
2023-03-20T22:53:19.247Z,26.13
2023-03-20T22:56:07.788Z,26.67
2023-03-20T22:58:53.811Z,24.83
2023-03-20T23:01:39.824Z,23.45
2023-03-20T23:04:27.454Z,23.90
2023-03-20T23:07:14.400Z,23.80
2023-03-20T23:10:00.829Z,25.00
2023-03-20T23:12:47.723Z,24.13
2023-03-20T23:15:33.430Z,24.40
2023-03-20T23:18:19.459Z,25.60
2023-03-20T23:21:06.282Z,22.55
2023-03-20T23:23:51.922Z,22.25
2023-03-20T23:26:38.106Z,23.20
2023-03-20T23:29:25.461Z,23.05
2023-03-20T23:32:11.089Z,24.67
2023-03-20T23:34:57.032Z,24.02
2023-03-20T23:37:42.914Z,25.20
2023-03-20T23:40:28.350Z,25.55
2023-03-20T23:43:14.132Z,24.95
2023-03-20T23:46:01.210Z,27.20
2023-03-20T23:48:47.395Z,26.58
2023-03-20T23:51:33.504Z,27.02
2023-03-20T23:54:19.036Z,25.73
2023-03-20T23:57:04.547Z,25.17
2023-03-20T23:59:50.472Z,25.30
